createdAt,value
2018-05-14T00:02:21.338Z,7.30
2018-05-14T00:04:50.697Z,5.90
2018-05-14T00:07:20.040Z,6.67
2018-05-14T00:09:49.297Z,7.90
2018-05-14T00:12:18.480Z,6.87
2018-05-14T00:14:47.551Z,5.70
2018-05-14T00:17:16.672Z,6.20
2018-05-14T00:19:45.808Z,5.90
2018-05-14T00:22:15.071Z,5.27
2018-05-14T00:24:44.184Z,6.07
2018-05-14T00:27:13.359Z,8.00
2018-05-14T00:29:42.846Z,8.47
2018-05-14T00:32:12.014Z,8.23
2018-05-14T00:34:41.166Z,5.93
2018-05-14T00:37:10.408Z,8.57
2018-05-14T00:39:39.603Z,8.03
2018-05-14T00:42:09.014Z,8.43
2018-05-14T00:44:38.320Z,6.60
2018-05-14T00:47:07.499Z,8.17
2018-05-14T00:49:37.356Z,6.30
2018-05-14T00:52:06.784Z,7.50
2018-05-14T00:54:35.923Z,7.17
2018-05-14T00:57:05.042Z,7.70
2018-05-14T00:59:34.238Z,7.93
2018-05-14T01:02:03.331Z,6.37
2018-05-14T01:04:32.468Z,7.33
2018-05-14T01:07:01.908Z,7.27
2018-05-14T01:09:31.240Z,7.63
2018-05-14T01:12:00.300Z,7.83
2018-05-14T01:14:29.301Z,5.53
2018-05-14T01:16:58.510Z,8.30
2018-05-14T01:19:27.485Z,9.60
2018-05-14T01:21:56.468Z,9.27
2018-05-14T01:24:25.628Z,8.03
2018-05-14T01:26:54.802Z,8.33
2018-05-14T01:29:23.972Z,8.50
2018-05-14T01:31:53.184Z,6.60
2018-05-14T01:34:22.311Z,8.90
2018-05-14T01:36:51.440Z,9.77
2018-05-14T01:39:20.741Z,11.07
2018-05-14T01:41:49.816Z,11.87
2018-05-14T01:44:18.844Z,10.77
2018-05-14T01:46:48.286Z,11.03
2018-05-14T01:49:17.603Z,10.87
2018-05-14T01:51:46.772Z,12.93
2018-05-14T01:54:15.919Z,11.30
2018-05-14T01:56:45.153Z,14.90
2018-05-14T01:59:14.384Z,7.63
2018-05-14T02:01:43.527Z,11.00
2018-05-14T02:04:12.511Z,11.30
2018-05-14T02:06:41.529Z,10.70
2018-05-14T02:09:10.629Z,13.03
2018-05-14T02:11:39.782Z,13.00
2018-05-14T02:14:09.094Z,10.20
2018-05-14T02:16:38.337Z,10.03
2018-05-14T02:19:07.772Z,12.17
2018-05-14T02:21:36.768Z,9.73
2018-05-14T02:24:06.184Z,8.43
2018-05-14T02:26:35.237Z,8.17
2018-05-14T02:29:04.578Z,11.10
2018-05-14T02:31:33.753Z,13.93
2018-05-14T02:34:02.834Z,9.60
2018-05-14T02:36:31.930Z,11.07
2018-05-14T02:39:01.670Z,11.03
2018-05-14T02:41:31.016Z,9.03
2018-05-14T02:43:59.993Z,8.90
2018-05-14T02:46:29.083Z,10.03
2018-05-14T02:48:58.068Z,10.17
2018-05-14T02:51:27.029Z,12.30
2018-05-14T02:53:56.149Z,10.57
2018-05-14T02:56:25.199Z,11.23
2018-05-14T02:58:54.405Z,13.93
2018-05-14T03:01:23.504Z,11.57
2018-05-14T03:03:52.583Z,8.47
2018-05-14T03:06:22.063Z,9.33
2018-05-14T03:08:51.048Z,10.50
2018-05-14T03:11:20.100Z,12.00
2018-05-14T03:13:49.503Z,9.90
2018-05-14T03:16:18.738Z,13.30
2018-05-14T03:18:47.868Z,10.60
2018-05-14T03:21:16.912Z,10.40
2018-05-14T03:23:46.004Z,11.97
2018-05-14T03:26:15.269Z,9.00
2018-05-14T03:28:44.492Z,11.00
2018-05-14T03:31:13.935Z,11.23
2018-05-14T03:33:42.948Z,10.00
2018-05-14T03:36:12.879Z,10.27
2018-05-14T03:38:41.896Z,16.40
2018-05-14T03:41:10.816Z,13.47
2018-05-14T03:43:39.961Z,9.53
2018-05-14T03:46:09.148Z,8.67
2018-05-14T03:48:38.387Z,9.23
2018-05-14T03:51:07.512Z,8.20
2018-05-14T03:53:36.688Z,8.97
2018-05-14T03:56:05.956Z,10.03
2018-05-14T03:58:46.360Z,14.17
2018-05-14T04:01:16.465Z,10.27
2018-05-14T04:06:47.687Z,12.03
2018-05-14T04:09:16.712Z,11.93
2018-05-14T04:11:45.739Z,12.40
2018-05-14T04:14:15.058Z,15.37
2018-05-14T04:16:44.260Z,7.73
2018-05-14T04:19:13.708Z,18.23
2018-05-14T04:21:43.112Z,15.07
2018-05-14T04:24:12.186Z,10.63
2018-05-14T04:26:41.301Z,6.33
2018-05-14T04:29:10.504Z,8.97
2018-05-14T04:31:39.668Z,11.57
2018-05-14T04:34:08.987Z,11.73
2018-05-14T04:36:38.140Z,9.73
2018-05-14T04:39:07.274Z,11.30
2018-05-14T04:41:36.456Z,11.00
2018-05-14T04:44:05.645Z,13.67
2018-05-14T04:46:34.892Z,10.93
2018-05-14T04:49:04.148Z,10.17
2018-05-14T04:51:33.540Z,12.27
2018-05-14T04:54:02.959Z,13.40
2018-05-14T04:56:33.021Z,11.50
2018-05-14T04:59:02.400Z,13.93
2018-05-14T05:01:31.460Z,12.63
2018-05-14T05:04:00.785Z,11.07
2018-05-14T05:06:30.594Z,9.60
2018-05-14T05:08:59.745Z,14.87
2018-05-14T05:11:28.925Z,12.90
2018-05-14T05:13:58.169Z,14.53
2018-05-14T05:16:27.124Z,12.87
2018-05-14T05:18:56.426Z,17.00
2018-05-14T05:21:25.816Z,12.63
2018-05-14T05:23:54.872Z,16.93
2018-05-14T05:26:23.920Z,14.80
2018-05-14T05:28:53.348Z,14.80
2018-05-14T05:31:22.596Z,16.10
2018-05-14T05:33:51.899Z,23.67
2018-05-14T05:36:21.224Z,13.60
2018-05-14T05:38:50.425Z,10.00
2018-05-14T05:41:19.698Z,13.93
2018-05-14T05:43:48.999Z,12.13
2018-05-14T05:46:18.602Z,13.57
2018-05-14T05:48:47.741Z,13.57
2018-05-14T05:51:17.245Z,11.63
2018-05-14T05:53:46.896Z,18.60
2018-05-14T05:56:16.957Z,12.97
2018-05-14T05:58:46.291Z,13.83
2018-05-14T06:01:15.748Z,12.50
2018-05-14T06:03:45.632Z,13.33
2018-05-14T06:06:14.911Z,16.63
2018-05-14T06:08:43.911Z,11.57
2018-05-14T06:11:12.923Z,14.73
2018-05-14T06:13:42.764Z,9.47
2018-05-14T06:16:11.895Z,17.37
2018-05-14T06:18:41.060Z,15.83
2018-05-14T06:21:10.149Z,11.70
2018-05-14T06:23:40.607Z,8.57
2018-05-14T06:26:09.672Z,10.10
2018-05-14T06:28:39.342Z,18.50
2018-05-14T06:31:09.359Z,10.60
2018-05-14T06:33:38.436Z,13.07
2018-05-14T06:36:07.633Z,12.80
2018-05-14T06:38:36.929Z,15.17
2018-05-14T06:41:06.376Z,6.27
2018-05-14T06:43:35.489Z,11.43
2018-05-14T06:46:06.671Z,10.07
2018-05-14T06:48:42.148Z,10.57
2018-05-14T06:51:12.014Z,11.80
2018-05-14T06:53:41.856Z,12.27
2018-05-14T06:56:15.585Z,9.90
2018-05-14T06:58:45.030Z,11.03
2018-05-14T07:01:14.244Z,9.10
2018-05-14T07:03:43.539Z,13.70
2018-05-14T07:06:13.449Z,11.23
2018-05-14T07:08:45.613Z,8.63
2018-05-14T07:11:18.264Z,8.80
2018-05-14T07:13:47.740Z,7.43
2018-05-14T07:16:17.429Z,8.67
2018-05-14T07:18:47.476Z,8.03
2018-05-14T07:21:18.069Z,9.77
2018-05-14T07:23:48.338Z,8.90
2018-05-14T07:26:18.289Z,7.90
2018-05-14T07:28:48.080Z,8.23
2018-05-14T07:31:18.960Z,10.03
2018-05-14T07:33:48.928Z,14.20
2018-05-14T07:36:18.206Z,9.87
2018-05-14T07:38:47.317Z,8.70
2018-05-14T07:41:18.332Z,8.37
2018-05-14T07:43:48.124Z,10.97
2018-05-14T07:46:20.060Z,10.50
2018-05-14T07:48:49.571Z,11.67
2018-05-14T07:51:18.915Z,7.63
2018-05-14T07:53:48.837Z,13.07
2018-05-14T07:56:20.896Z,7.77
2018-05-14T07:58:52.105Z,14.73
2018-05-14T08:01:21.379Z,10.07
2018-05-14T08:03:50.746Z,9.53
2018-05-14T08:06:19.853Z,7.53
2018-05-14T08:08:49.717Z,10.43
2018-05-14T08:11:19.445Z,9.50
2018-05-14T08:13:48.622Z,7.87
2018-05-14T08:16:17.703Z,7.67
2018-05-14T08:18:47.014Z,6.70
2018-05-14T08:21:16.110Z,8.53
2018-05-14T08:23:45.385Z,9.20
2018-05-14T08:26:15.399Z,7.23
2018-05-14T08:28:44.944Z,10.30
2018-05-14T08:31:14.373Z,9.67
2018-05-14T08:33:43.444Z,9.73
2018-05-14T08:36:12.574Z,9.67
2018-05-14T08:38:42.092Z,6.00
2018-05-14T08:41:11.248Z,6.73
2018-05-14T08:43:40.952Z,9.23
2018-05-14T08:46:10.001Z,6.93
2018-05-14T08:48:39.436Z,5.93
2018-05-14T08:51:08.577Z,7.30
2018-05-14T08:53:37.780Z,6.63
2018-05-14T08:56:06.876Z,5.43
2018-05-14T08:58:35.947Z,7.77
2018-05-14T09:01:05.184Z,5.47
2018-05-14T09:03:35.229Z,9.27
2018-05-14T09:06:04.841Z,7.80
2018-05-14T09:08:33.936Z,4.60
2018-05-14T09:11:03.108Z,6.30
2018-05-14T09:13:32.700Z,8.33
2018-05-14T09:16:02.027Z,9.87
2018-05-14T09:18:31.102Z,8.63
2018-05-14T09:21:00.560Z,9.67
2018-05-14T09:23:29.901Z,5.30
2018-05-14T09:25:59.148Z,9.67
2018-05-14T09:28:28.538Z,8.70
2018-05-14T09:30:57.952Z,8.20
2018-05-14T09:33:27.211Z,8.17
2018-05-14T09:35:56.282Z,8.53
2018-05-14T09:38:25.428Z,13.17
2018-05-14T09:40:54.546Z,7.77
2018-05-14T09:43:23.909Z,11.57
2018-05-14T09:45:53.090Z,11.33
2018-05-14T09:48:22.205Z,9.97
2018-05-14T09:50:51.632Z,12.83
2018-05-14T09:53:20.769Z,8.33
2018-05-14T09:55:50.028Z,7.47
2018-05-14T09:58:19.204Z,8.83
2018-05-14T10:00:48.452Z,13.17
2018-05-14T10:03:17.536Z,7.30
2018-05-14T10:05:46.901Z,7.57
2018-05-14T10:08:16.156Z,14.27
2018-05-14T10:10:45.459Z,9.47
2018-05-14T10:13:15.988Z,8.70
2018-05-14T10:15:45.171Z,11.97
2018-05-14T10:18:15.310Z,9.60
2018-05-14T10:20:44.582Z,11.40
2018-05-14T10:23:13.804Z,12.87
2018-05-14T10:25:43.155Z,6.67
2018-05-14T10:28:12.333Z,13.73
2018-05-14T10:30:41.568Z,10.30
2018-05-14T10:33:10.908Z,10.53
2018-05-14T10:35:40.240Z,11.23
2018-05-14T10:38:09.512Z,12.67
2018-05-14T10:40:40.957Z,11.30
2018-05-14T10:43:10.449Z,10.00
2018-05-14T10:45:39.480Z,10.30
2018-05-14T10:48:08.557Z,12.33
2018-05-14T10:50:37.850Z,7.30
2018-05-14T10:53:07.432Z,11.37
2018-05-14T10:55:36.723Z,8.00
2018-05-14T10:58:05.944Z,10.53
2018-05-14T11:00:35.483Z,13.67
2018-05-14T11:03:06.460Z,11.03
2018-05-14T11:05:35.445Z,12.00
2018-05-14T11:08:05.900Z,15.13
2018-05-14T11:10:35.256Z,16.93
2018-05-14T11:13:05.205Z,16.83
2018-05-14T11:15:36.554Z,22.20
2018-05-14T11:18:06.345Z,12.20
2018-05-14T11:20:35.801Z,15.03
2018-05-14T11:23:05.028Z,13.13
2018-05-14T11:25:34.249Z,15.50
2018-05-14T11:28:03.375Z,14.53
2018-05-14T11:30:32.468Z,14.33
2018-05-14T11:33:01.775Z,13.93
2018-05-14T11:35:31.029Z,9.90
2018-05-14T11:38:00.498Z,9.80
2018-05-14T11:40:30.549Z,13.17
2018-05-14T11:43:00.274Z,13.63
2018-05-14T11:45:29.762Z,9.23
2018-05-14T11:47:59.067Z,9.43
2018-05-14T11:50:28.556Z,9.70
2018-05-14T11:52:57.512Z,12.13
2018-05-14T11:55:26.613Z,8.87
2018-05-14T11:57:55.927Z,12.23
2018-05-14T12:00:25.452Z,13.20
2018-05-14T12:02:54.600Z,12.97
2018-05-14T12:05:23.777Z,11.57
2018-05-14T12:07:52.869Z,11.33
2018-05-14T12:10:22.114Z,12.47
2018-05-14T12:12:51.466Z,14.20
2018-05-14T12:15:20.914Z,14.83
2018-05-14T12:17:50.215Z,12.87
2018-05-14T12:20:20.440Z,20.30
2018-05-14T12:22:49.738Z,14.73
2018-05-14T12:25:18.864Z,12.63
2018-05-14T12:27:47.919Z,11.13
2018-05-14T12:30:16.943Z,20.23
2018-05-14T12:32:46.330Z,16.20
2018-05-14T12:35:15.714Z,15.83
2018-05-14T12:37:46.234Z,11.80
2018-05-14T12:40:15.328Z,14.40
2018-05-14T12:42:44.667Z,17.37
2018-05-14T12:45:14.011Z,16.97
2018-05-14T12:47:43.704Z,15.30
2018-05-14T12:50:12.784Z,19.13
2018-05-14T12:52:42.210Z,18.30
2018-05-14T12:55:11.924Z,27.00
2018-05-14T12:57:41.797Z,18.40
2018-05-14T13:00:11.024Z,20.70
2018-05-14T13:02:40.106Z,17.70
2018-05-14T13:05:09.483Z,16.50
2018-05-14T13:07:39.558Z,20.27
2018-05-14T13:10:08.695Z,20.27
2018-05-14T13:12:38.330Z,25.53
2018-05-14T13:15:07.656Z,21.60
2018-05-14T13:17:36.656Z,29.53
2018-05-14T13:20:06.618Z,21.17
2018-05-14T13:22:35.880Z,19.23
2018-05-14T13:25:05.210Z,18.93
2018-05-14T13:27:34.439Z,16.40
2018-05-14T13:30:04.688Z,22.53
2018-05-14T13:32:33.860Z,21.60
2018-05-14T13:35:03.258Z,22.43
2018-05-14T13:37:33.033Z,20.73
2018-05-14T13:40:02.223Z,20.33
2018-05-14T13:42:31.336Z,21.50
2018-05-14T13:45:00.659Z,26.53
2018-05-14T13:47:29.768Z,22.40
2018-05-14T13:49:59.032Z,18.17
2018-05-14T13:52:28.558Z,19.60
2018-05-14T13:54:57.631Z,22.90
2018-05-14T13:57:26.910Z,22.03
2018-05-14T13:59:56.172Z,21.30
2018-05-14T14:02:25.456Z,18.20
2018-05-14T14:04:54.792Z,16.90
2018-05-14T14:07:24.192Z,18.13
2018-05-14T14:09:53.288Z,17.97
2018-05-14T14:12:22.676Z,20.50
2018-05-14T14:14:51.984Z,24.23
2018-05-14T14:17:21.283Z,19.33
2018-05-14T14:19:50.457Z,17.47
2018-05-14T14:22:19.850Z,21.90
2018-05-14T14:24:48.864Z,18.30
2018-05-14T14:27:18.224Z,17.67
2018-05-14T14:29:47.506Z,21.70
2018-05-14T14:32:17.153Z,20.80
2018-05-14T14:34:46.495Z,23.33
2018-05-14T14:37:15.524Z,21.33
2018-05-14T14:39:44.700Z,17.90
2018-05-14T14:42:14.109Z,18.60
2018-05-14T14:44:43.332Z,25.57
2018-05-14T14:47:12.587Z,23.43
2018-05-14T14:49:42.057Z,23.47
2018-05-14T14:52:11.242Z,21.13
2018-05-14T14:54:40.368Z,17.70
2018-05-14T14:57:10.621Z,17.87
2018-05-14T14:59:39.776Z,23.50
2018-05-14T15:02:09.642Z,17.57
2018-05-14T15:04:38.813Z,20.23
2018-05-14T15:07:07.855Z,21.73
2018-05-14T15:09:37.547Z,19.33
2018-05-14T15:12:07.080Z,15.67
2018-05-14T15:14:36.248Z,20.23
2018-05-14T15:17:05.598Z,18.60
2018-05-14T15:19:34.820Z,21.60
2018-05-14T15:22:04.156Z,19.10
2018-05-14T15:24:33.520Z,17.33
2018-05-14T15:27:02.759Z,20.73
2018-05-14T15:29:31.784Z,17.23
2018-05-14T15:32:01.233Z,22.83
2018-05-14T15:34:30.485Z,17.30
2018-05-14T15:36:59.622Z,18.93
2018-05-14T15:39:28.842Z,14.57
2018-05-14T15:41:57.965Z,15.27
2018-05-14T15:44:26.912Z,21.57
2018-05-14T15:46:55.960Z,17.77
2018-05-14T15:49:24.894Z,17.93
2018-05-14T15:51:53.883Z,20.60
2018-05-14T15:54:23.410Z,13.13
2018-05-14T15:56:52.591Z,16.77
2018-05-14T15:59:21.632Z,11.93
2018-05-14T16:01:50.930Z,14.63
2018-05-14T16:04:20.128Z,17.33
2018-05-14T16:06:49.093Z,13.13
2018-05-14T16:09:18.295Z,18.13
2018-05-14T16:11:47.348Z,21.97
2018-05-14T16:14:16.536Z,22.57
2018-05-14T16:16:45.634Z,14.10
2018-05-14T16:19:14.970Z,18.03
2018-05-14T16:21:43.992Z,17.40
2018-05-14T16:24:13.269Z,21.63
2018-05-14T16:26:42.575Z,19.20
2018-05-14T16:29:11.538Z,23.50
2018-05-14T16:31:40.776Z,17.10
2018-05-14T16:34:09.824Z,17.27
2018-05-14T16:36:39.224Z,21.20
2018-05-14T16:39:08.629Z,19.90
2018-05-14T16:41:38.032Z,19.50
2018-05-14T16:44:07.139Z,16.83
2018-05-14T16:46:36.394Z,20.00
2018-05-14T16:49:05.658Z,19.00
2018-05-14T16:51:34.981Z,21.83
2018-05-14T16:54:04.328Z,16.93
2018-05-14T16:56:33.424Z,17.03
2018-05-14T16:59:03.772Z,18.77
2018-05-14T17:01:32.907Z,22.57
2018-05-14T17:04:03.103Z,21.07
2018-05-14T17:06:32.332Z,24.57
2018-05-14T17:09:01.653Z,17.30
2018-05-14T17:11:30.999Z,21.60
2018-05-14T17:14:00.452Z,20.77
2018-05-14T17:16:29.796Z,20.27
2018-05-14T17:18:59.153Z,19.13
2018-05-14T17:21:28.570Z,19.80
2018-05-14T17:23:57.800Z,21.37
2018-05-14T17:26:27.051Z,21.43
2018-05-14T17:28:56.292Z,19.77
2018-05-14T17:31:25.467Z,17.87
2018-05-14T17:33:54.834Z,18.27
2018-05-14T17:36:24.234Z,17.80
2018-05-14T17:38:53.640Z,21.10
2018-05-14T17:41:22.914Z,23.23
2018-05-14T17:43:52.073Z,18.93
2018-05-14T17:46:21.204Z,23.10
2018-05-14T17:48:50.511Z,20.90
2018-05-14T17:51:19.937Z,21.87
2018-05-14T17:53:49.044Z,23.63
2018-05-14T17:56:18.110Z,19.47
2018-05-14T17:58:47.055Z,20.27
2018-05-14T18:01:16.193Z,16.67
2018-05-14T18:03:45.803Z,20.83
2018-05-14T18:06:14.781Z,16.53
2018-05-14T18:08:43.933Z,21.90
2018-05-14T18:11:13.077Z,28.20
2018-05-14T18:13:42.401Z,18.20
2018-05-14T18:16:11.577Z,21.47
2018-05-14T18:18:40.692Z,17.87
2018-05-14T18:21:11.904Z,19.93
2018-05-14T18:23:46.931Z,20.57
2018-05-14T18:28:52.252Z,22.97
2018-05-14T18:31:27.596Z,23.97
2018-05-14T18:34:02.276Z,18.53
2018-05-14T18:36:31.462Z,22.23
2018-05-14T18:39:00.606Z,26.10
2018-05-14T18:41:29.845Z,23.70
2018-05-14T18:43:58.968Z,25.30
2018-05-14T18:46:28.272Z,22.17
2018-05-14T18:48:57.371Z,18.63
2018-05-14T18:51:26.372Z,19.90
2018-05-14T18:53:55.454Z,19.07
2018-05-14T18:56:25.483Z,26.10
2018-05-14T18:58:54.512Z,23.63
2018-05-14T19:01:23.620Z,20.50
2018-05-14T19:03:52.617Z,22.97
2018-05-14T19:06:21.762Z,17.83
2018-05-14T19:08:50.940Z,21.90
2018-05-14T19:11:25.566Z,18.83
2018-05-14T19:13:54.814Z,16.30
2018-05-14T19:16:29.447Z,23.33
2018-05-14T19:18:58.472Z,17.67
2018-05-14T19:21:27.472Z,17.60
2018-05-14T19:23:56.833Z,24.13
2018-05-14T19:26:26.099Z,22.10
2018-05-14T19:29:00.901Z,21.13
2018-05-14T19:31:29.996Z,19.77
2018-05-14T19:37:02.040Z,21.97
2018-05-14T19:39:36.842Z,20.70
2018-05-14T19:42:05.914Z,27.77
2018-05-14T19:44:34.918Z,28.47
2018-05-14T19:47:04.221Z,22.90
2018-05-14T19:49:33.277Z,21.27
2018-05-14T19:52:01.425Z,27.20
2018-05-14T19:54:30.237Z,21.50
2018-05-14T19:56:59.312Z,27.77
2018-05-14T19:59:28.449Z,20.70
2018-05-14T20:01:57.725Z,24.03
2018-05-14T20:04:26.869Z,17.80
2018-05-14T20:06:55.941Z,21.33
2018-05-14T20:09:24.965Z,27.30
2018-05-14T20:11:54.156Z,19.50
2018-05-14T20:14:23.458Z,24.67
2018-05-14T20:16:52.582Z,22.17
2018-05-14T20:19:21.838Z,24.23
2018-05-14T20:21:50.854Z,23.20
2018-05-14T20:24:19.975Z,19.27
2018-05-14T20:26:49.423Z,24.17
2018-05-14T20:29:18.501Z,23.20
2018-05-14T20:31:47.595Z,20.40
2018-05-14T20:34:16.588Z,18.70
2018-05-14T20:36:46.054Z,30.27
2018-05-14T20:39:15.224Z,20.73
2018-05-14T20:41:44.428Z,22.97
2018-05-14T20:44:13.692Z,22.30
2018-05-14T20:46:42.938Z,22.10
2018-05-14T20:49:11.933Z,23.43
2018-05-14T20:51:41.159Z,23.40
2018-05-14T20:54:10.275Z,23.83
2018-05-14T20:56:39.484Z,23.67
2018-05-14T20:59:08.684Z,21.33
2018-05-14T21:01:37.693Z,20.60
2018-05-14T21:04:07.033Z,21.73
2018-05-14T21:06:36.452Z,20.17
2018-05-14T21:09:06.546Z,21.87
2018-05-14T21:11:35.803Z,19.87
2018-05-14T21:14:04.891Z,23.50
2018-05-14T21:16:34.074Z,23.23
2018-05-14T21:19:03.132Z,21.37
2018-05-14T21:21:32.460Z,20.23
2018-05-14T21:24:01.516Z,22.73
2018-05-14T21:26:30.824Z,34.20
2018-05-14T21:28:59.872Z,25.53
2018-05-14T21:31:29.045Z,22.93
2018-05-14T21:33:58.173Z,18.23
2018-05-14T21:36:27.166Z,20.40
2018-05-14T21:38:56.348Z,22.63
2018-05-14T21:41:25.719Z,19.43
2018-05-14T21:43:54.730Z,25.73
2018-05-14T21:46:24.069Z,23.47
2018-05-14T21:48:53.490Z,23.17
2018-05-14T21:51:22.897Z,31.00
2018-05-14T21:53:52.299Z,21.90
2018-05-14T21:56:21.711Z,20.93
2018-05-14T21:58:52.264Z,22.23
2018-05-14T22:01:22.090Z,25.63
2018-05-14T22:03:51.269Z,22.47
2018-05-14T22:06:20.477Z,21.13
2018-05-14T22:08:49.744Z,19.07
2018-05-14T22:11:19.101Z,20.20
2018-05-14T22:13:48.348Z,21.17
2018-05-14T22:16:17.503Z,23.33
2018-05-14T22:18:46.570Z,22.27
2018-05-14T22:21:15.708Z,21.57
2018-05-14T22:23:45.671Z,25.73
2018-05-14T22:26:14.816Z,27.03
2018-05-14T22:28:43.920Z,23.43
2018-05-14T22:31:13.562Z,26.97
2018-05-14T22:33:42.635Z,20.43
2018-05-14T22:36:11.955Z,28.83
2018-05-14T22:38:41.135Z,26.83
2018-05-14T22:41:10.283Z,25.13
2018-05-14T22:43:39.490Z,23.13
2018-05-14T22:46:08.712Z,28.27
2018-05-14T22:48:37.927Z,28.27
2018-05-14T22:51:06.969Z,23.57
2018-05-14T22:53:36.231Z,24.00
2018-05-14T22:56:05.244Z,23.53
2018-05-14T22:58:34.320Z,25.93
2018-05-14T23:01:03.404Z,19.77
2018-05-14T23:03:32.674Z,22.37
2018-05-14T23:06:01.889Z,19.97
2018-05-14T23:08:31.225Z,21.23
2018-05-14T23:11:00.432Z,18.93
2018-05-14T23:13:29.488Z,17.33
2018-05-14T23:15:58.591Z,15.13
2018-05-14T23:18:27.643Z,15.80
2018-05-14T23:20:57.228Z,15.83
2018-05-14T23:23:26.332Z,12.83
2018-05-14T23:25:55.628Z,13.67
2018-05-14T23:28:24.956Z,13.53
2018-05-14T23:30:54.200Z,14.97
2018-05-14T23:33:23.510Z,12.63
2018-05-14T23:35:53.139Z,17.63
2018-05-14T23:38:22.519Z,15.90
2018-05-14T23:40:51.750Z,13.27
2018-05-14T23:43:20.862Z,14.83
2018-05-14T23:45:50.278Z,15.00
2018-05-14T23:48:19.396Z,13.20
2018-05-14T23:50:48.843Z,15.43
2018-05-14T23:53:18.153Z,13.77
2018-05-14T23:55:47.482Z,17.33
2018-05-14T23:58:16.853Z,14.73
